createdAt,value
2018-03-03T00:02:09.081Z,100376.80
2018-03-03T00:04:36.596Z,100377.09
2018-03-03T00:07:04.118Z,100384.75
2018-03-03T00:09:32.474Z,100388.44
2018-03-03T00:11:59.994Z,100390.77
2018-03-03T00:14:27.526Z,100395.52
2018-03-03T00:16:55.062Z,100387.13
2018-03-03T00:19:22.620Z,100399.70
2018-03-03T00:21:51.061Z,100397.16
2018-03-03T00:24:18.580Z,100399.73
2018-03-03T00:26:46.113Z,100398.47
2018-03-03T00:29:13.641Z,100395.44
2018-03-03T00:31:42.249Z,100395.77
2018-03-03T00:34:09.776Z,100393.81
2018-03-03T00:36:37.310Z,100398.47
2018-03-03T00:39:04.869Z,100400.15
2018-03-03T00:41:32.385Z,100407.52
2018-03-03T00:43:59.911Z,100403.55
2018-03-03T00:46:27.445Z,100410.83
2018-03-03T00:48:54.981Z,100413.41
2018-03-03T00:51:22.505Z,100415.14
2018-03-03T00:53:50.029Z,100416.52
2018-03-03T00:56:17.564Z,100414.78
2018-03-03T00:58:45.081Z,100420.72
2018-03-03T01:01:12.599Z,100417.92
2018-03-03T01:03:40.125Z,100418.61
2018-03-03T01:06:07.654Z,100413.50
2018-03-03T01:08:35.469Z,100418.09
2018-03-03T01:11:02.992Z,100414.26
2018-03-03T01:13:30.520Z,100421.94
2018-03-03T01:15:58.037Z,100414.28
2018-03-03T01:18:25.564Z,100411.03
2018-03-03T01:20:53.102Z,100411.20
2018-03-03T01:23:20.696Z,100411.77
2018-03-03T01:25:48.202Z,100416.52
2018-03-03T01:28:15.716Z,100410.67
2018-03-03T01:30:43.251Z,100404.17
2018-03-03T01:33:10.777Z,100411.45
2018-03-03T01:35:38.298Z,100405.78
2018-03-03T01:38:05.824Z,100408.09
2018-03-03T01:40:33.460Z,100413.50
2018-03-03T01:43:00.986Z,100408.27
2018-03-03T01:45:28.505Z,100402.86
2018-03-03T01:47:56.050Z,100407.05
2018-03-03T01:50:23.570Z,100411.66
2018-03-03T01:52:52.017Z,100405.06
2018-03-03T01:55:19.538Z,100405.27
2018-03-03T01:57:47.654Z,100396.81
2018-03-03T02:00:15.174Z,100393.43
2018-03-03T02:02:42.696Z,100405.92
2018-03-03T02:05:10.215Z,100393.75
2018-03-03T02:07:37.746Z,100389.47
2018-03-03T02:10:05.269Z,100384.84
2018-03-03T02:12:32.801Z,100388.89
2018-03-03T02:15:02.025Z,100385.54
2018-03-03T02:17:29.554Z,100387.39
2018-03-03T02:19:58.204Z,100387.92
2018-03-03T02:22:25.727Z,100385.00
2018-03-03T02:24:53.263Z,100384.24
2018-03-03T02:27:20.786Z,100387.34
2018-03-03T02:29:48.329Z,100385.91
2018-03-03T02:32:15.861Z,100394.13
2018-03-03T02:34:43.388Z,100392.45
2018-03-03T02:37:10.920Z,100377.96
2018-03-03T02:39:38.489Z,100379.63
2018-03-03T02:42:06.014Z,100391.00
2018-03-03T02:44:33.546Z,100396.33
2018-03-03T02:47:01.079Z,100396.48
2018-03-03T02:49:29.325Z,100393.50
2018-03-03T02:51:56.854Z,100394.47
2018-03-03T02:54:24.396Z,100395.77
2018-03-03T02:56:51.954Z,100388.91
2018-03-03T02:59:20.106Z,100389.63
2018-03-03T03:01:47.646Z,100384.08
2018-03-03T03:04:15.883Z,100380.30
2018-03-03T03:06:43.412Z,100388.03
2018-03-03T03:09:10.939Z,100382.61
2018-03-03T03:11:38.471Z,100392.39
2018-03-03T03:14:06.004Z,100396.20
2018-03-03T03:16:33.599Z,100386.43
2018-03-03T03:19:01.101Z,100381.64
2018-03-03T03:21:28.630Z,100387.17
2018-03-03T03:23:56.169Z,100383.52
2018-03-03T03:26:24.653Z,100384.00
2018-03-03T03:28:52.179Z,100376.72
2018-03-03T03:31:19.704Z,100376.60
2018-03-03T03:33:47.262Z,100370.31
2018-03-03T03:36:14.786Z,100374.01
2018-03-03T03:38:42.317Z,100371.17
2018-03-03T03:41:09.846Z,100376.08
2018-03-03T03:43:38.072Z,100379.99
2018-03-03T03:46:05.601Z,100380.14
2018-03-03T03:48:33.116Z,100388.24
2018-03-03T03:51:00.650Z,100381.88
2018-03-03T03:53:28.176Z,100390.97
2018-03-03T03:55:56.361Z,100386.44
2018-03-03T03:58:23.888Z,100387.91
2018-03-03T04:00:52.015Z,100387.32
2018-03-03T04:03:19.548Z,100401.38
2018-03-03T04:05:47.079Z,100393.09
2018-03-03T04:08:14.596Z,100395.36
2018-03-03T04:10:42.129Z,100393.23
2018-03-03T04:13:09.652Z,100393.20
2018-03-03T04:15:37.509Z,100396.66
2018-03-03T04:18:05.038Z,100390.44
2018-03-03T04:20:32.704Z,100387.47
2018-03-03T04:23:00.232Z,100383.82
2018-03-03T04:25:27.777Z,100391.22
2018-03-03T04:27:55.700Z,100385.75
2018-03-03T04:30:23.227Z,100391.72
2018-03-03T04:32:51.229Z,100396.04
2018-03-03T04:35:18.753Z,100397.75
2018-03-03T04:37:46.826Z,100391.95
2018-03-03T04:40:14.341Z,100387.09
2018-03-03T04:42:41.879Z,100393.48
2018-03-03T04:45:09.405Z,100396.87
2018-03-03T04:47:36.942Z,100394.44
2018-03-03T04:50:04.477Z,100396.64
2018-03-03T04:52:32.010Z,100393.44
2018-03-03T04:54:59.569Z,100390.13
2018-03-03T04:57:27.106Z,100390.68
2018-03-03T05:03:12.325Z,100388.60
2018-03-03T05:05:45.454Z,100383.85
2018-03-03T05:11:09.879Z,100386.30
2018-03-03T05:13:47.294Z,100393.47
2018-03-03T05:16:19.031Z,100382.68
2018-03-03T05:18:52.138Z,100382.55
2018-03-03T05:24:38.572Z,100382.84
2018-03-03T05:30:23.112Z,100378.39
2018-03-03T05:32:56.486Z,100385.36
2018-03-03T05:38:32.619Z,100387.44
2018-03-03T05:44:11.001Z,100390.38
2018-03-03T05:46:44.505Z,100388.62
2018-03-03T05:49:17.744Z,100387.59
2018-03-03T05:54:57.001Z,100391.03
2018-03-03T05:57:31.085Z,100394.96
2018-03-03T06:00:04.784Z,100393.89
2018-03-03T06:02:38.003Z,100399.82
2018-03-03T06:05:11.081Z,100391.34
2018-03-03T06:07:44.332Z,100389.73
2018-03-03T06:10:13.359Z,100391.19
2018-03-03T06:12:40.885Z,100383.75
2018-03-03T06:15:08.420Z,100390.08
2018-03-03T06:17:35.969Z,100385.13
2018-03-03T06:20:03.523Z,100381.97
2018-03-03T06:22:31.039Z,100388.99
2018-03-03T06:24:58.901Z,100381.66
2018-03-03T06:27:26.443Z,100380.18
2018-03-03T06:29:53.969Z,100387.91
2018-03-03T06:32:21.498Z,100388.10
2018-03-03T06:34:49.640Z,100390.16
2018-03-03T06:37:17.166Z,100383.50
2018-03-03T06:39:44.717Z,100382.23
2018-03-03T06:42:12.248Z,100378.71
2018-03-03T06:44:39.781Z,100379.08
2018-03-03T06:47:07.313Z,100380.58
2018-03-03T06:49:34.834Z,100377.08
2018-03-03T06:52:02.363Z,100385.91
2018-03-03T06:54:30.236Z,100381.67
2018-03-03T06:56:57.762Z,100383.27
2018-03-03T06:59:25.298Z,100382.45
2018-03-03T07:01:52.827Z,100383.84
2018-03-03T07:04:20.368Z,100378.96
2018-03-03T07:06:47.906Z,100381.02
2018-03-03T07:09:16.284Z,100377.88
2018-03-03T07:11:44.547Z,100371.23
2018-03-03T07:14:12.085Z,100381.36
2018-03-03T07:16:40.084Z,100380.02
2018-03-03T07:19:07.626Z,100380.13
2018-03-03T07:21:35.156Z,100376.98
2018-03-03T07:24:02.685Z,100382.58
2018-03-03T07:26:30.221Z,100374.86
2018-03-03T07:28:57.746Z,100374.95
2018-03-03T07:31:25.270Z,100383.39
2018-03-03T07:33:52.789Z,100377.58
2018-03-03T07:36:20.332Z,100378.52
2018-03-03T07:38:47.885Z,100376.54
2018-03-03T07:41:15.426Z,100381.47
2018-03-03T07:43:42.956Z,100380.44
2018-03-03T07:46:10.478Z,100372.82
2018-03-03T07:48:37.996Z,100371.31
2018-03-03T07:51:05.525Z,100369.78
2018-03-03T07:53:33.062Z,100364.88
2018-03-03T07:56:00.584Z,100360.30
2018-03-03T08:01:32.657Z,100358.56
2018-03-03T08:04:00.205Z,100357.83
2018-03-03T08:06:27.730Z,100352.32
2018-03-03T08:08:55.261Z,100356.14
2018-03-03T08:11:22.785Z,100350.33
2018-03-03T08:13:50.519Z,100345.61
2018-03-03T08:16:18.062Z,100347.33
2018-03-03T08:18:45.598Z,100345.70
2018-03-03T08:21:13.125Z,100350.06
2018-03-03T08:23:40.664Z,100343.98
2018-03-03T08:26:08.204Z,100331.67
2018-03-03T08:28:35.719Z,100348.13
2018-03-03T08:31:03.246Z,100331.19
2018-03-03T08:33:30.774Z,100326.61
2018-03-03T08:35:59.231Z,100327.96
2018-03-03T08:38:26.788Z,100324.06
2018-03-03T08:40:54.322Z,100331.42
2018-03-03T08:43:21.911Z,100327.80
2018-03-03T08:45:49.424Z,100336.97
2018-03-03T08:48:16.952Z,100330.09
2018-03-03T08:50:44.483Z,100331.92
2018-03-03T08:53:12.006Z,100328.44
2018-03-03T08:55:39.634Z,100314.96
2018-03-03T08:58:07.828Z,100311.76
2018-03-03T09:00:35.358Z,100324.70
2018-03-03T09:03:02.899Z,100330.69
2018-03-03T09:05:30.434Z,100332.67
2018-03-03T09:07:57.959Z,100335.28
2018-03-03T09:10:25.493Z,100331.47
2018-03-03T09:12:53.013Z,100338.82
2018-03-03T09:15:21.374Z,100324.38
2018-03-03T09:17:48.906Z,100326.02
2018-03-03T09:20:16.432Z,100334.11
2018-03-03T09:22:43.963Z,100323.43
2018-03-03T09:25:12.169Z,100328.39
2018-03-03T09:27:39.698Z,100326.65
2018-03-03T09:30:07.221Z,100324.63
2018-03-03T09:32:34.734Z,100342.08
2018-03-03T09:35:03.157Z,100344.77
2018-03-03T09:37:30.689Z,100334.37
2018-03-03T09:39:58.219Z,100323.25
2018-03-03T09:42:25.762Z,100334.88
2018-03-03T09:44:53.292Z,100322.76
2018-03-03T09:47:20.878Z,100331.59
2018-03-03T09:49:48.417Z,100326.66
2018-03-03T09:52:15.935Z,100312.55
2018-03-03T09:54:43.464Z,100319.11
2018-03-03T09:57:10.998Z,100296.97
2018-03-03T09:59:39.401Z,100318.83
2018-03-03T10:02:07.135Z,100309.86
2018-03-03T10:04:34.673Z,100303.28
2018-03-03T10:07:02.197Z,100284.65
2018-03-03T10:09:29.737Z,100295.73
2018-03-03T10:11:57.270Z,100289.39
2018-03-03T10:14:24.851Z,100319.52
2018-03-03T10:16:52.366Z,100305.74
2018-03-03T10:19:19.890Z,100312.72
2018-03-03T10:21:47.416Z,100334.86
2018-03-03T10:24:14.958Z,100317.94
2018-03-03T10:26:43.199Z,100319.57
2018-03-03T10:29:10.735Z,100332.59
2018-03-03T10:31:39.183Z,100311.00
2018-03-03T10:34:06.704Z,100327.34
2018-03-03T10:36:34.799Z,100319.61
2018-03-03T10:39:04.026Z,100312.34
2018-03-03T10:41:31.555Z,100309.34
2018-03-03T10:43:59.094Z,100313.73
2018-03-03T10:46:26.674Z,100314.06
2018-03-03T10:48:54.778Z,100332.39
2018-03-03T10:51:22.298Z,100318.52
2018-03-03T10:53:50.541Z,100323.83
2018-03-03T10:56:18.588Z,100314.20
2018-03-03T10:58:46.162Z,100303.17
2018-03-03T11:01:13.689Z,100308.47
2018-03-03T11:03:41.229Z,100300.25
2018-03-03T11:06:09.339Z,100291.12
2018-03-03T11:08:36.866Z,100299.66
2018-03-03T11:11:04.402Z,100304.91
2018-03-03T11:13:31.934Z,100293.45
2018-03-03T11:15:59.465Z,100282.25
2018-03-03T11:18:27.761Z,100287.77
2018-03-03T11:20:55.304Z,100288.80
2018-03-03T11:23:22.835Z,100283.94
2018-03-03T11:25:50.365Z,100286.70
2018-03-03T11:28:18.620Z,100287.08
2018-03-03T11:30:46.388Z,100276.79
2018-03-03T11:33:13.913Z,100286.19
2018-03-03T11:35:41.436Z,100282.83
2018-03-03T11:38:08.960Z,100284.31
2018-03-03T11:40:36.532Z,100287.72
2018-03-03T11:43:04.776Z,100283.34
2018-03-03T11:45:32.302Z,100289.96
2018-03-03T11:47:59.817Z,100287.65
2018-03-03T11:50:27.336Z,100285.51
2018-03-03T11:52:54.858Z,100284.34
2018-03-03T11:55:22.389Z,100279.83
2018-03-03T11:57:49.932Z,100281.27
2018-03-03T12:00:17.468Z,100286.02
2018-03-03T12:02:45.020Z,100291.30
2018-03-03T12:05:12.545Z,100276.08
2018-03-03T12:07:40.077Z,100280.80
2018-03-03T12:10:07.601Z,100281.73
2018-03-03T12:12:35.130Z,100282.64
2018-03-03T12:15:02.649Z,100284.36
2018-03-03T12:17:30.649Z,100282.57
2018-03-03T12:19:58.178Z,100294.39
2018-03-03T12:22:26.029Z,100294.27
2018-03-03T12:24:53.556Z,100295.24
2018-03-03T12:27:21.109Z,100296.55
2018-03-03T12:29:48.637Z,100287.89
2018-03-03T12:32:16.166Z,100282.19
2018-03-03T12:34:43.823Z,100289.98
2018-03-03T12:37:11.366Z,100278.90
2018-03-03T12:39:38.970Z,100275.61
2018-03-03T12:42:06.502Z,100270.81
2018-03-03T12:44:35.359Z,100266.86
2018-03-03T12:47:02.925Z,100264.27
2018-03-03T12:49:30.447Z,100275.61
2018-03-03T12:51:58.033Z,100283.52
2018-03-03T12:54:25.559Z,100265.98
2018-03-03T12:56:53.114Z,100257.20
2018-03-03T12:59:20.636Z,100266.89
2018-03-03T13:01:48.877Z,100265.13
2018-03-03T13:04:16.414Z,100272.11
2018-03-03T13:06:43.969Z,100266.89
2018-03-03T13:09:11.499Z,100259.87
2018-03-03T13:11:39.029Z,100262.06
2018-03-03T13:14:06.556Z,100268.64
2018-03-03T13:16:34.208Z,100258.56
2018-03-03T13:19:01.739Z,100255.91
2018-03-03T13:21:29.290Z,100243.66
2018-03-03T13:23:56.836Z,100244.95
2018-03-03T13:26:24.375Z,100243.22
2018-03-03T13:28:52.064Z,100241.47
2018-03-03T13:31:19.596Z,100238.84
2018-03-03T13:33:47.141Z,100240.61
2018-03-03T13:36:14.721Z,100250.25
2018-03-03T13:38:43.075Z,100247.17
2018-03-03T13:41:10.605Z,100239.27
2018-03-03T13:43:38.142Z,100249.79
2018-03-03T13:46:05.665Z,100249.77
2018-03-03T13:48:33.284Z,100242.80
2018-03-03T13:51:00.814Z,100240.59
2018-03-03T13:53:28.935Z,100237.05
2018-03-03T13:55:56.460Z,100248.91
2018-03-03T13:58:23.996Z,100234.86
2018-03-03T14:00:51.537Z,100226.11
2018-03-03T14:03:19.079Z,100230.09
2018-03-03T14:05:46.610Z,100231.83
2018-03-03T14:08:14.142Z,100227.41
2018-03-03T14:10:41.689Z,100223.44
2018-03-03T14:13:09.247Z,100241.06
2018-03-03T14:15:36.784Z,100246.72
2018-03-03T14:18:05.292Z,100235.78
2018-03-03T14:20:32.813Z,100228.36
2018-03-03T14:23:01.114Z,100226.16
2018-03-03T14:25:29.483Z,100220.88
2018-03-03T14:27:57.053Z,100221.34
2018-03-03T14:30:25.340Z,100223.97
2018-03-03T14:32:52.870Z,100221.32
2018-03-03T14:35:20.396Z,100216.51
2018-03-03T14:37:47.925Z,100230.52
2018-03-03T14:40:15.458Z,100221.76
2018-03-03T14:42:42.999Z,100214.32
2018-03-03T14:45:11.353Z,100211.72
2018-03-03T14:47:38.900Z,100218.28
2018-03-03T14:50:06.428Z,100216.09
2018-03-03T14:52:34.053Z,100213.00
2018-03-03T14:55:01.587Z,100215.20
2018-03-03T14:57:29.116Z,100218.72
2018-03-03T14:59:56.650Z,100217.84
2018-03-03T15:02:24.175Z,100208.14
2018-03-03T15:04:51.708Z,100217.39
2018-03-03T15:07:20.213Z,100222.66
2018-03-03T15:09:47.740Z,100227.90
2018-03-03T15:12:15.307Z,100232.73
2018-03-03T15:14:43.781Z,100219.13
2018-03-03T15:17:11.398Z,100227.90
2018-03-03T15:19:38.934Z,100228.34
2018-03-03T15:22:07.342Z,100226.16
2018-03-03T15:24:34.886Z,100218.73
2018-03-03T15:27:03.078Z,100224.83
2018-03-03T15:29:30.605Z,100225.72
2018-03-03T15:31:58.133Z,100228.34
2018-03-03T15:34:25.663Z,100230.09
2018-03-03T15:36:53.218Z,100239.30
2018-03-03T15:39:20.813Z,100229.64
2018-03-03T15:41:48.306Z,100236.66
2018-03-03T15:44:16.609Z,100245.42
2018-03-03T15:46:44.143Z,100248.05
2018-03-03T15:49:11.690Z,100248.91
2018-03-03T15:51:39.220Z,100250.69
2018-03-03T15:54:06.741Z,100255.05
2018-03-03T15:56:34.267Z,100251.11
2018-03-03T15:59:01.803Z,100260.30
2018-03-03T16:01:29.344Z,100262.05
2018-03-03T16:03:56.874Z,100257.67
2018-03-03T16:06:24.401Z,100255.49
2018-03-03T16:08:51.922Z,100257.23
2018-03-03T16:11:19.446Z,100252.00
2018-03-03T16:13:46.980Z,100253.73
2018-03-03T16:16:14.498Z,100256.80
2018-03-03T16:18:42.804Z,100264.23
2018-03-03T16:21:10.343Z,100267.70
2018-03-03T16:23:37.870Z,100264.20
2018-03-03T16:26:05.441Z,100259.41
2018-03-03T16:28:32.970Z,100267.28
2018-03-03T16:31:00.494Z,100267.28
2018-03-03T16:33:28.776Z,100265.53
2018-03-03T16:35:56.306Z,100266.83
2018-03-03T16:38:23.823Z,100266.36
2018-03-03T16:40:51.380Z,100271.16
2018-03-03T16:43:18.946Z,100272.94
2018-03-03T16:45:47.425Z,100287.78
2018-03-03T16:48:14.958Z,100282.97
2018-03-03T16:50:42.712Z,100285.16
2018-03-03T16:53:10.269Z,100290.38
2018-03-03T16:55:37.797Z,100285.59
2018-03-03T16:58:05.329Z,100287.78
2018-03-03T17:00:32.858Z,100293.03
2018-03-03T17:03:00.385Z,100292.53
2018-03-03T17:05:27.920Z,100291.70
2018-03-03T17:07:55.437Z,100294.33
2018-03-03T17:10:22.971Z,100286.44
2018-03-03T17:12:50.520Z,100295.16
2018-03-03T17:15:18.051Z,100294.30
2018-03-03T17:17:45.590Z,100290.37
2018-03-03T17:20:13.121Z,100296.50
2018-03-03T17:22:40.658Z,100301.71
2018-03-03T17:25:08.248Z,100299.06
2018-03-03T17:27:35.796Z,100303.03
2018-03-03T17:30:03.334Z,100299.52
2018-03-03T17:32:31.711Z,100292.53
2018-03-03T17:34:59.240Z,100297.78
2018-03-03T17:37:26.766Z,100293.38
2018-03-03T17:39:54.547Z,100290.75
2018-03-03T17:42:22.078Z,100293.83
2018-03-03T17:44:49.625Z,100293.79
2018-03-03T17:47:17.147Z,100288.53
2018-03-03T17:49:44.676Z,100292.46
2018-03-03T17:52:13.257Z,100300.30
2018-03-03T17:54:40.781Z,100297.21
2018-03-03T17:57:08.327Z,100296.82
2018-03-03T17:59:35.888Z,100296.81
2018-03-03T18:02:03.673Z,100306.84
2018-03-03T18:04:31.202Z,100303.31
2018-03-03T18:06:58.728Z,100301.56
2018-03-03T18:09:26.311Z,100300.69
2018-03-03T18:11:59.561Z,100305.50
2018-03-03T18:14:28.745Z,100304.18
2018-03-03T18:16:56.290Z,100303.27
2018-03-03T18:19:35.664Z,100311.59
2018-03-03T18:22:03.253Z,100313.77
2018-03-03T18:24:36.758Z,100313.30
2018-03-03T18:27:04.343Z,100320.31
2018-03-03T18:29:31.903Z,100323.83
2018-03-03T18:31:59.440Z,100323.78
2018-03-03T18:34:26.987Z,100323.32
2018-03-03T18:36:54.567Z,100317.66
2018-03-03T18:39:22.259Z,100318.52
2018-03-03T18:41:49.809Z,100319.85
2018-03-03T18:44:17.325Z,100327.23
2018-03-03T18:46:44.853Z,100334.63
2018-03-03T18:49:12.398Z,100332.09
2018-03-03T18:51:39.954Z,100336.34
2018-03-03T18:54:07.490Z,100342.03
2018-03-03T18:56:35.105Z,100344.65
2018-03-03T18:59:02.647Z,100344.19
2018-03-03T19:01:30.237Z,100347.67
2018-03-03T19:03:57.824Z,100351.17
2018-03-03T19:06:25.352Z,100352.95
2018-03-03T19:08:53.277Z,100361.19
2018-03-03T19:11:20.880Z,100355.01
2018-03-03T19:13:48.406Z,100360.34
2018-03-03T19:16:15.937Z,100357.59
2018-03-03T19:18:43.489Z,100361.53
2018-03-03T19:21:11.051Z,100366.30
2018-03-03T19:23:38.573Z,100361.09
2018-03-03T19:26:06.103Z,100358.41
2018-03-03T19:28:33.631Z,100360.62
2018-03-03T19:31:01.182Z,100370.96
2018-03-03T19:33:28.713Z,100361.83
2018-03-03T19:35:56.242Z,100366.20
2018-03-03T19:38:23.767Z,100371.40
2018-03-03T19:40:51.427Z,100375.69
2018-03-03T19:43:18.950Z,100375.41
2018-03-03T19:45:46.469Z,100377.00
2018-03-03T19:48:14.018Z,100367.39
2018-03-03T19:50:41.550Z,100375.25
2018-03-03T19:53:10.150Z,100372.67
2018-03-03T19:55:38.272Z,100376.88
2018-03-03T19:58:05.813Z,100373.86
2018-03-03T20:00:33.338Z,100368.59
2018-03-03T20:03:00.865Z,100372.00
2018-03-03T20:05:28.417Z,100371.20
2018-03-03T20:07:56.761Z,100375.13
2018-03-03T20:10:24.307Z,100375.92
2018-03-03T20:12:51.836Z,100378.06
2018-03-03T20:15:19.358Z,100383.34
2018-03-03T20:17:46.895Z,100383.22
2018-03-03T20:20:14.435Z,100383.77
2018-03-03T20:22:41.966Z,100380.28
2018-03-03T20:25:10.099Z,100391.12
2018-03-03T20:27:37.631Z,100387.75
2018-03-03T20:30:05.150Z,100386.36
2018-03-03T20:32:32.692Z,100382.91
2018-03-03T20:35:00.256Z,100387.10
2018-03-03T20:37:27.795Z,100384.61
2018-03-03T20:39:55.319Z,100389.28
2018-03-03T20:42:23.606Z,100394.95
2018-03-03T20:44:51.140Z,100391.50
2018-03-03T20:47:18.663Z,100391.38
2018-03-03T20:49:46.182Z,100390.06
2018-03-03T20:52:13.740Z,100390.06
2018-03-03T20:54:41.284Z,100396.45
2018-03-03T20:57:08.880Z,100388.74
2018-03-03T20:59:36.403Z,100397.81
2018-03-03T21:02:03.920Z,100390.84
2018-03-03T21:04:31.442Z,100387.73
2018-03-03T21:06:58.975Z,100399.27
2018-03-03T21:09:26.504Z,100399.08
2018-03-03T21:12:02.456Z,100406.54
2018-03-03T21:14:30.314Z,100401.16
2018-03-03T21:16:57.845Z,100402.08
2018-03-03T21:19:26.268Z,100395.97
2018-03-03T21:21:54.791Z,100398.00
2018-03-03T21:24:22.323Z,100401.11
2018-03-03T21:26:49.869Z,100409.34
2018-03-03T21:29:17.408Z,100404.45
2018-03-03T21:31:44.950Z,100402.64
2018-03-03T21:34:12.505Z,100407.11
2018-03-03T21:36:40.037Z,100410.22
2018-03-03T21:39:07.637Z,100415.72
2018-03-03T21:41:35.176Z,100412.81
2018-03-03T21:44:02.740Z,100417.57
2018-03-03T21:46:30.278Z,100423.45
2018-03-03T21:48:57.831Z,100425.75
2018-03-03T21:51:25.346Z,100427.38
2018-03-03T21:53:52.873Z,100430.86
2018-03-03T21:56:20.394Z,100423.57
2018-03-03T21:58:47.928Z,100435.17
2018-03-03T22:01:15.455Z,100437.45
2018-03-03T22:03:43.420Z,100447.10
2018-03-03T22:06:10.958Z,100447.48
2018-03-03T22:08:39.282Z,100449.17
2018-03-03T22:11:06.818Z,100444.25
2018-03-03T22:13:34.348Z,100446.37
2018-03-03T22:16:01.874Z,100455.16
2018-03-03T22:18:29.403Z,100448.55
2018-03-03T22:20:56.925Z,100454.72
2018-03-03T22:23:24.459Z,100450.84
2018-03-03T22:25:52.022Z,100449.00
2018-03-03T22:28:19.562Z,100448.93
2018-03-03T22:30:47.954Z,100455.27
2018-03-03T22:33:15.483Z,100444.15
2018-03-03T22:35:43.018Z,100447.73
2018-03-03T22:38:10.599Z,100449.55
2018-03-03T22:40:38.996Z,100441.78
2018-03-03T22:43:07.513Z,100437.73
2018-03-03T22:45:35.054Z,100441.27
2018-03-03T22:48:03.483Z,100436.55
2018-03-03T22:50:31.059Z,100438.78
2018-03-03T22:52:58.585Z,100434.17
2018-03-03T22:55:26.606Z,100433.17
2018-03-03T22:57:54.268Z,100432.12
2018-03-03T23:00:21.824Z,100418.94
2018-03-03T23:02:49.350Z,100423.17
2018-03-03T23:05:16.882Z,100423.72
2018-03-03T23:07:44.413Z,100423.54
2018-03-03T23:10:11.965Z,100425.84
2018-03-03T23:12:39.489Z,100428.02
2018-03-03T23:15:07.011Z,100428.27
2018-03-03T23:17:34.584Z,100425.72
2018-03-03T23:20:02.114Z,100425.64
2018-03-03T23:22:29.736Z,100426.95
2018-03-03T23:24:57.722Z,100420.78
2018-03-03T23:27:25.252Z,100418.62
2018-03-03T23:29:52.788Z,100414.77
2018-03-03T23:32:20.318Z,100422.04
2018-03-03T23:34:47.849Z,100413.33
2018-03-03T23:37:16.306Z,100416.86
2018-03-03T23:39:44.413Z,100416.18
2018-03-03T23:42:11.944Z,100422.70
2018-03-03T23:44:39.474Z,100417.63
2018-03-03T23:47:07.701Z,100424.52
2018-03-03T23:49:35.227Z,100426.14
2018-03-03T23:52:03.338Z,100424.89
2018-03-03T23:54:30.861Z,100420.59
2018-03-03T23:56:58.411Z,100427.36
2018-03-03T23:59:25.941Z,100425.73
